Terminal Aerodrome Forecast
Issued by NWS State College, PA

Home | Current Version | Previous Version | Text Only | Print | Product List | Glossary On
Versions: 1 2 3 4 5 6 7 8 9 10 11 12 13 14 15 16 17 18 19 20 21 22 23 24 25 26 27 28 29 30
000
FTUS41 KCTP 310027 AAA
TAFMDT
TAF AMD
KMDT 310027Z 3100/3124 31005KT 5SM -RA SCT060 OVC090
     FM310100 31003KT P6SM SCT100 BKN200
     FM310600 00000KT 4SM BR SCT007 BKN150
     FM311400 VRB03KT P6SM FEW250=

USA.gov is the U.S. government's official web portal to all federal, state and local government web resources and services.